Time;durP1;ratioP1;P1;durP2;ratioP2;P2;SDS_P1;SDS_P2;PMS_P1;PMS_P2;Temp;Humidity;BMP_temperature;BMP_pressure;BME280_temperature;BME280_humidity;BME280_pressure;Samples;Min_cycle;Max_cycle;Signal;HPM_P1;HPM_P2
2021/03/18 00:00:55;;;;;;;21.63;13.40;;;;;;;;;;5093366;28;20028;-59
2021/03/18 00:03:28;;;;;;;23.38;14.80;;;;;;;;;;5078516;28;20021;-59
2021/03/18 00:05:55;;;;;;;29.05;15.82;;;;;;;;;;5075283;28;20040;-58
2021/03/18 00:08:21;;;;;;;24.92;15.93;;;;;;;;;;5064888;28;20028;-59
2021/03/18 00:10:48;;;;;;;26.88;15.98;;;;;;;;;;5073898;28;20482;-59
2021/03/18 00:13:14;;;;;;;25.10;15.88;;;;;;;;;;5074248;28;20020;-60
2021/03/18 00:15:41;;;;;;;25.33;16.83;;;;;;;;;;5072937;28;20017;-59
2021/03/18 00:18:08;;;;;;;23.15;14.82;;;;;;;;;;5086178;28;20016;-59
2021/03/18 00:20:35;;;;;;;26.58;14.93;;;;;;;;;;5092347;28;20027;-59
2021/03/18 00:23:01;;;;;;;26.65;15.70;;;;;;;;;;5092451;28;20024;-59
2021/03/18 00:25:27;;;;;;;24.30;14.85;;;;;;;;;;5092565;28;20040;-59
2021/03/18 00:27:54;;;;;;;23.88;15.57;;;;;;;;;;5092685;28;20473;-59
2021/03/18 00:30:21;;;;;;;23.83;14.90;;;;;;;;;;5092622;28;20099;-59
2021/03/18 00:32:48;;;;;;;22.63;14.90;;;;;;;;;;5093036;28;20095;-60
2021/03/18 00:35:14;;;;;;;22.80;14.95;;;;;;;;;;5092601;28;20493;-59
2021/03/18 00:37:41;;;;;;;25.90;14.40;;;;;;;;;;5092584;28;20472;-58
2021/03/18 00:40:09;;;;;;;26.88;15.30;;;;;;;;;;5062295;28;20119;-58
2021/03/18 00:42:35;;;;;;;23.85;14.95;;;;;;;;;;5090532;28;20062;-59
2021/03/18 00:45:01;;;;;;;23.00;15.35;;;;;;;;;;5092589;28;20512;-57
2021/03/18 00:47:27;;;;;;;21.92;13.82;;;;;;;;;;5093071;28;20032;-59
2021/03/18 00:49:53;;;;;;;24.92;16.25;;;;;;;;;;5092745;28;20035;-58
2021/03/18 00:52:19;;;;;;;23.77;15.65;;;;;;;;;;5093132;28;20039;-58
2021/03/18 00:54:45;;;;;;;24.33;15.75;;;;;;;;;;5093124;28;20157;-57
2021/03/18 00:57:11;;;;;;;25.00;16.02;;;;;;;;;;5092817;28;20024;-58
2021/03/18 00:59:37;;;;;;;24.23;15.57;;;;;;;;;;5092521;28;20032;-58
2021/03/18 01:02:03;;;;;;;28.50;17.02;;;;;;;;;;5092591;28;20535;-58
2021/03/18 01:04:30;;;;;;;26.05;16.23;;;;;;;;;;5093161;28;20366;-57
2021/03/18 01:06:56;;;;;;;24.30;14.88;;;;;;;;;;5092874;28;20381;-57
2021/03/18 01:09:22;;;;;;;26.60;16.85;;;;;;;;;;5092605;28;20075;-58
2021/03/18 01:11:48;;;;;;;26.35;16.08;;;;;;;;;;5092773;28;20421;-58
2021/03/18 01:14:14;;;;;;;23.38;14.77;;;;;;;;;;5092721;28;20070;-59
2021/03/18 01:16:51;;;;;;;26.27;14.82;;;;;;;;;;5091041;28;20020;-58
2021/03/18 01:19:20;;;;;;;26.05;15.95;;;;;;;;;;5092000;28;20012;-57
2021/03/18 01:21:47;;;;;;;21.70;14.18;;;;;;;;;;5089353;28;20070;-58
2021/03/18 01:24:14;;;;;;;22.02;15.32;;;;;;;;;;5091747;28;20068;-57
2021/03/18 01:26:41;;;;;;;22.98;15.23;;;;;;;;;;5091830;28;20024;-58
2021/03/18 01:29:07;;;;;;;24.95;14.82;;;;;;;;;;5091850;28;20510;-57
2021/03/18 01:31:34;;;;;;;23.35;15.45;;;;;;;;;;5092706;28;20032;-57
2021/03/18 01:34:00;;;;;;;23.50;14.85;;;;;;;;;;5093688;28;20016;-58
2021/03/18 01:36:26;;;;;;;23.73;14.43;;;;;;;;;;5095958;28;20020;-57
2021/03/18 01:38:52;;;;;;;22.92;15.15;;;;;;;;;;5095912;28;20106;-57
2021/03/18 01:41:20;;;;;;;21.77;13.93;;;;;;;;;;5095783;28;20020;-57
2021/03/18 01:43:47;;;;;;;22.85;14.30;;;;;;;;;;5077298;28;20160;-57
2021/03/18 01:46:13;;;;;;;22.05;13.48;;;;;;;;;;5095735;28;20032;-57
2021/03/18 01:48:40;;;;;;;23.55;14.20;;;;;;;;;;5095738;28;20020;-57
2021/03/18 01:51:06;;;;;;;21.63;12.80;;;;;;;;;;5095546;28;20035;-58
2021/03/18 01:53:32;;;;;;;22.33;13.88;;;;;;;;;;5091455;28;20020;-56
2021/03/18 01:55:59;;;;;;;22.00;13.10;;;;;;;;;;5092888;28;20370;-58
2021/03/18 01:58:25;;;;;;;23.42;13.02;;;;;;;;;;5095466;28;20359;-57
2021/03/18 02:00:53;;;;;;;21.88;13.50;;;;;;;;;;5095280;28;20028;-57
2021/03/18 02:03:19;;;;;;;20.98;13.43;;;;;;;;;;5095855;28;20024;-57
2021/03/18 02:05:46;;;;;;;20.33;13.27;;;;;;;;;;5095623;28;20473;-59
2021/03/18 02:08:12;;;;;;;20.90;13.85;;;;;;;;;;5096285;28;20480;-58
2021/03/18 02:10:39;;;;;;;20.20;12.63;;;;;;;;;;5095551;28;20062;-57
2021/03/18 02:13:05;;;;;;;21.90;13.52;;;;;;;;;;5095984;28;20016;-58
2021/03/18 02:15:34;;;;;;;22.05;13.50;;;;;;;;;;5095898;28;20031;-58
2021/03/18 02:18:12;;;;;;;19.63;13.48;;;;;;;;;;5095572;28;20174;-57
2021/03/18 02:20:47;;;;;;;19.23;12.30;;;;;;;;;;5095660;28;20040;-58
2021/03/18 02:23:25;;;;;;;21.13;12.45;;;;;;;;;;5095789;28;20024;-57
2021/03/18 02:26:06;;;;;;;22.98;13.02;;;;;;;;;;5095443;28;20036;-57
2021/03/18 02:28:32;;;;;;;19.10;11.68;;;;;;;;;;5095535;28;20455;-57
2021/03/18 02:31:01;;;;;;;20.73;12.25;;;;;;;;;;5095714;28;20111;-57
2021/03/18 02:33:37;;;;;;;19.23;13.45;;;;;;;;;;5095892;28;20077;-58
2021/03/18 02:36:07;;;;;;;19.27;12.93;;;;;;;;;;5094407;28;20043;-57
2021/03/18 02:38:34;;;;;;;20.35;13.65;;;;;;;;;;5095066;28;20032;-58
2021/03/18 02:41:02;;;;;;;19.70;11.80;;;;;;;;;;5095174;28;20030;-58
2021/03/18 02:43:32;;;;;;;21.20;12.57;;;;;;;;;;5094854;28;20024;-58
2021/03/18 02:46:00;;;;;;;20.35;12.20;;;;;;;;;;5093615;28;20032;-57
2021/03/18 02:48:33;;;;;;;18.57;11.73;;;;;;;;;;5094719;28;20027;-58
2021/03/18 02:50:59;;;;;;;20.05;11.98;;;;;;;;;;5094446;28;20028;-58
2021/03/18 02:53:27;;;;;;;21.42;12.05;;;;;;;;;;5094581;28;20565;-58
2021/03/18 02:55:54;;;;;;;21.27;12.43;;;;;;;;;;5094371;28;20032;-58
2021/03/18 02:58:26;;;;;;;17.25;11.15;;;;;;;;;;5094326;28;20031;-58
2021/03/18 03:00:53;;;;;;;18.63;11.48;;;;;;;;;;5094284;28;20020;-58
2021/03/18 03:03:20;;;;;;;21.27;11.80;;;;;;;;;;5094391;28;20024;-58
2021/03/18 03:05:47;;;;;;;16.80;11.95;;;;;;;;;;5094298;28;20176;-58
2021/03/18 03:08:14;;;;;;;18.75;11.80;;;;;;;;;;5093895;28;20135;-58
2021/03/18 03:10:40;;;;;;;17.70;11.43;;;;;;;;;;5093721;28;20063;-58
2021/03/18 03:13:07;;;;;;;16.75;11.30;;;;;;;;;;5075398;28;20028;-57
2021/03/18 03:15:34;;;;;;;15.93;11.25;;;;;;;;;;5094102;28;20028;-58
2021/03/18 03:18:02;;;;;;;21.38;11.52;;;;;;;;;;5094032;28;20035;-58
2021/03/18 03:20:28;;;;;;;19.15;11.75;;;;;;;;;;5093858;28;20020;-57
2021/03/18 03:22:55;;;;;;;16.15;10.30;;;;;;;;;;5094155;28;20432;-58
2021/03/18 03:25:21;;;;;;;15.43;10.60;;;;;;;;;;5093555;28;20028;-57
2021/03/18 03:27:48;;;;;;;19.55;12.07;;;;;;;;;;5093782;28;20023;-58
2021/03/18 03:30:15;;;;;;;15.52;10.32;;;;;;;;;;5093608;28;20035;-57
2021/03/18 03:32:41;;;;;;;15.85;10.10;;;;;;;;;;5093915;28;20030;-57
2021/03/18 03:35:08;;;;;;;17.50;10.55;;;;;;;;;;5094156;28;20027;-58
2021/03/18 03:37:34;;;;;;;16.63;10.00;;;;;;;;;;5075070;28;20036;-57
2021/03/18 03:40:00;;;;;;;16.75;11.13;;;;;;;;;;5094811;28;20028;-58
2021/03/18 03:42:26;;;;;;;16.90;10.30;;;;;;;;;;5094763;28;20051;-58
2021/03/18 03:44:52;;;;;;;15.40;10.60;;;;;;;;;;5094439;28;20436;-57
2021/03/18 03:47:18;;;;;;;16.23;10.93;;;;;;;;;;5094626;28;20042;-59
2021/03/18 03:49:45;;;;;;;15.65;10.18;;;;;;;;;;5094221;28;20025;-58
2021/03/18 03:52:19;;;;;;;16.17;10.88;;;;;;;;;;5095145;28;20051;-58
2021/03/18 03:54:59;;;;;;;16.67;10.80;;;;;;;;;;5094788;28;20032;-59
2021/03/18 03:57:34;;;;;;;20.13;10.68;;;;;;;;;;5093894;28;20545;-58
2021/03/18 04:00:01;;;;;;;16.25;10.40;;;;;;;;;;5094162;28;20103;-56
2021/03/18 04:02:28;;;;;;;18.15;10.68;;;;;;;;;;5094488;28;20032;-57
2021/03/18 04:04:56;;;;;;;15.20;9.73;;;;;;;;;;5093866;28;20073;-57
2021/03/18 04:07:27;;;;;;;19.73;11.20;;;;;;;;;;5092425;28;20024;-57
2021/03/18 04:09:53;;;;;;;16.88;10.23;;;;;;;;;;5093044;28;20132;-58
2021/03/18 04:12:20;;;;;;;16.50;10.52;;;;;;;;;;5093599;28;20093;-57
2021/03/18 04:14:53;;;;;;;16.70;10.35;;;;;;;;;;5092877;28;20036;-56
2021/03/18 04:17:20;;;;;;;19.17;11.25;;;;;;;;;;5093534;28;20050;-57
2021/03/18 04:19:48;;;;;;;18.50;12.55;;;;;;;;;;5093395;28;20024;-57
2021/03/18 04:22:14;;;;;;;22.65;12.50;;;;;;;;;;5093474;28;20481;-57
2021/03/18 04:24:41;;;;;;;19.23;11.02;;;;;;;;;;5092804;28;20162;-56
2021/03/18 04:27:07;;;;;;;17.95;11.88;;;;;;;;;;5093298;28;20028;-57
2021/03/18 04:29:33;;;;;;;22.27;12.68;;;;;;;;;;5093163;28;20027;-58
2021/03/18 04:32:01;;;;;;;20.42;12.27;;;;;;;;;;5093199;28;20052;-57
2021/03/18 04:34:28;;;;;;;26.52;13.35;;;;;;;;;;5092971;28;20030;-57
2021/03/18 04:36:54;;;;;;;19.73;11.13;;;;;;;;;;5092873;28;20150;-59
2021/03/18 04:39:21;;;;;;;18.02;11.63;;;;;;;;;;5092899;28;20417;-57
2021/03/18 04:41:47;;;;;;;18.17;11.27;;;;;;;;;;5092628;28;20111;-57
2021/03/18 04:44:14;;;;;;;17.67;11.55;;;;;;;;;;5092607;28;20082;-57
2021/03/18 04:46:42;;;;;;;19.05;11.55;;;;;;;;;;5092508;28;20124;-57
2021/03/18 04:49:09;;;;;;;18.50;11.90;;;;;;;;;;5092577;28;20099;-57
2021/03/18 04:51:36;;;;;;;18.08;10.80;;;;;;;;;;5092890;28;20020;-57
2021/03/18 04:54:03;;;;;;;19.60;11.70;;;;;;;;;;5093240;28;20382;-57
2021/03/18 04:56:29;;;;;;;17.75;11.07;;;;;;;;;;5092899;28;20107;-57
2021/03/18 04:58:56;;;;;;;19.73;11.93;;;;;;;;;;5093168;28;20023;-57
2021/03/18 05:01:25;;;;;;;19.30;11.63;;;;;;;;;;5093422;28;20020;-57
2021/03/18 05:03:51;;;;;;;;;;;;;;;;;;5093295;28;20051;-57
2021/03/18 05:06:20;;;;;;;19.05;11.57;;;;;;;;;;5092845;28;20350;-57
2021/03/18 05:08:46;;;;;;;19.67;11.73;;;;;;;;;;5091638;28;21401;-57
2021/03/18 05:11:12;;;;;;;20.48;13.35;;;;;;;;;;5076480;28;20130;-57
2021/03/18 05:13:39;;;;;;;21.40;11.85;;;;;;;;;;5076866;28;20367;-57
2021/03/18 05:16:05;;;;;;;20.08;11.55;;;;;;;;;;5076586;28;20095;-56
2021/03/18 05:18:32;;;;;;;18.55;11.32;;;;;;;;;;5076582;28;20017;-57
2021/03/18 05:20:59;;;;;;;22.40;12.63;;;;;;;;;;5075311;28;20111;-57
2021/03/18 05:23:26;;;;;;;16.10;10.98;;;;;;;;;;5076092;28;20037;-58
2021/03/18 05:25:52;;;;;;;17.65;12.15;;;;;;;;;;5076475;28;20390;-57
2021/03/18 05:28:18;;;;;;;20.00;11.95;;;;;;;;;;5076562;28;20100;-57
2021/03/18 05:30:44;;;;;;;20.05;12.30;;;;;;;;;;5076258;28;20112;-57
2021/03/18 05:33:11;;;;;;;18.98;12.95;;;;;;;;;;5076166;28;20056;-56
2021/03/18 05:35:41;;;;;;;20.00;13.35;;;;;;;;;;5076016;28;20155;-57
2021/03/18 05:38:08;;;;;;;17.85;11.32;;;;;;;;;;5076240;28;20017;-57
2021/03/18 05:40:35;;;;;;;23.33;12.88;;;;;;;;;;5076093;28;20032;-57
2021/03/18 05:43:01;;;;;;;19.38;11.20;;;;;;;;;;5076292;28;20402;-58
2021/03/18 05:45:28;;;;;;;20.75;13.48;;;;;;;;;;5075796;28;20028;-57
2021/03/18 05:47:55;;;;;;;23.95;13.25;;;;;;;;;;5058149;28;20123;-57
2021/03/18 05:50:21;;;;;;;23.90;13.23;;;;;;;;;;5076053;28;20371;-57
2021/03/18 05:52:49;;;;;;;21.35;12.70;;;;;;;;;;5074213;28;20017;-57
2021/03/18 05:55:15;;;;;;;22.50;14.30;;;;;;;;;;5075496;28;20020;-57
2021/03/18 05:57:42;;;;;;;24.58;13.15;;;;;;;;;;5075262;28;20026;-57
2021/03/18 06:00:10;;;;;;;19.95;12.95;;;;;;;;;;5074940;28;20016;-57
2021/03/18 06:02:36;;;;;;;20.55;12.48;;;;;;;;;;5075212;28;20020;-57
2021/03/18 06:05:04;;;;;;;20.88;12.38;;;;;;;;;;5075207;28;20458;-57
2021/03/18 06:07:31;;;;;;;22.52;12.55;;;;;;;;;;5075063;28;20040;-58
2021/03/18 06:09:57;;;;;;;19.52;12.65;;;;;;;;;;5087665;28;20368;-57
2021/03/18 06:12:23;;;;;;;20.48;12.40;;;;;;;;;;5094654;28;20059;-57
2021/03/18 06:14:49;;;;;;;19.45;12.32;;;;;;;;;;5095235;28;20020;-58
2021/03/18 06:17:16;;;;;;;21.38;12.93;;;;;;;;;;5094818;28;20119;-57
2021/03/18 06:19:43;;;;;;;20.92;13.05;;;;;;;;;;5094014;28;20497;-57
2021/03/18 06:22:09;;;;;;;21.85;13.30;;;;;;;;;;5074847;28;20437;-57
2021/03/18 06:24:48;;;;;;;21.30;13.00;;;;;;;;;;5095292;28;20424;-58
2021/03/18 06:27:23;;;;;;;20.73;12.70;;;;;;;;;;5093595;28;20476;-57
2021/03/18 06:29:49;;;;;;;19.85;12.10;;;;;;;;;;5081793;28;20012;-58
2021/03/18 06:32:17;;;;;;;20.77;13.07;;;;;;;;;;5095195;28;20055;-57
2021/03/18 06:34:44;;;;;;;21.40;12.02;;;;;;;;;;5092249;28;20020;-57
2021/03/18 06:37:29;;;;;;;22.27;13.00;;;;;;;;;;5085940;28;20082;-58
2021/03/18 06:39:56;;;;;;;24.00;12.90;;;;;;;;;;5094529;28;20020;-57
2021/03/18 06:42:22;;;;;;;23.20;12.38;;;;;;;;;;5081614;28;20036;-59
2021/03/18 06:44:48;;;;;;;24.50;13.93;;;;;;;;;;5092362;28;20020;-57
2021/03/18 06:47:14;;;;;;;21.45;13.40;;;;;;;;;;5093953;28;20032;-57
2021/03/18 06:49:40;;;;;;;22.30;12.57;;;;;;;;;;5094405;28;20031;-57
2021/03/18 06:52:08;;;;;;;24.98;14.68;;;;;;;;;;5094652;28;20023;-58
2021/03/18 06:54:38;;;;;;;24.05;13.57;;;;;;;;;;5094388;28;20027;-57
2021/03/18 06:57:04;;;;;;;20.30;13.68;;;103.00;2227.20;;;;;;5094853;28;20048;-59
2021/03/18 06:59:38;;;;;;;22.38;13.25;;;102.70;2227.20;;;;;;5088566;28;20031;-56
2021/03/18 07:02:15;;;;;;;26.77;14.68;;;102.60;2227.20;;;;;;5092894;28;20145;-57
2021/03/18 07:04:48;;;;;;;24.10;13.52;;;102.70;2227.20;;;;;;5090245;28;20038;-56
2021/03/18 07:07:14;;;;;;;20.85;13.50;;;102.90;2227.20;;;;;;5092250;28;20043;-57
2021/03/18 07:09:41;;;;;;;21.33;13.70;;;102.90;2227.20;;;;;;5084666;28;20094;-60
2021/03/18 07:12:12;;;;;;;21.05;12.85;;;103.20;2227.20;;;;;;5076327;28;20028;-57
2021/03/18 07:14:45;;;;;;;21.27;13.10;;;103.30;2227.20;;;;;;5074114;28;20031;-57
2021/03/18 07:17:18;;;;;;;27.27;14.48;;;103.10;2227.20;;;;;;5074397;28;20017;-59
2021/03/18 07:19:44;;;;;;;26.00;14.88;;;103.00;2227.20;;;;;;5073327;28;20086;-59
2021/03/18 07:22:20;;;;;;;21.95;14.00;;;103.00;2227.20;;;;;;5078316;28;20027;-58
2021/03/18 07:24:55;;;;;;;24.13;13.18;;;102.80;2227.20;;;;;;5073917;28;20024;-57
2021/03/18 07:27:22;;;;;;;24.70;13.65;;;102.80;2227.20;;;;;;5076880;28;20245;-65
2021/03/18 07:29:51;;;;;;;23.80;14.07;;;;;;;;;;5075768;28;20103;-66
2021/03/18 07:32:17;;;;;;;21.50;12.80;;;;;;;;;;5055712;28;20032;-65
2021/03/18 07:34:44;;;;;;;20.02;13.00;;;;;;;;;;5072413;28;20383;-66
2021/03/18 07:37:13;;;;;;;21.25;13.15;;;;;;;;;;5077528;28;20026;-65
2021/03/18 07:39:39;;;;;;;;;;;;;;;;;;5076391;28;20054;-68
2021/03/18 07:42:06;;;;;;;25.23;13.65;;;;;;;;;;5073420;28;19913;-62
2021/03/18 07:44:33;;;;;;;21.08;12.93;;;;;;;;;;5073955;28;20020;-65
2021/03/18 07:47:00;;;;;;;23.50;14.90;;;;;;;;;;5071952;28;20032;-64
2021/03/18 07:49:28;;;;;;;27.17;15.27;;;;;;;;;;5071060;28;20409;-63
2021/03/18 07:51:56;;;;;;;22.67;13.93;;;;;;;;;;5071568;28;20462;-68
2021/03/18 07:54:23;;;;;;;24.13;13.98;;;;;;;;;;5081316;28;20036;-64
2021/03/18 07:56:53;;;;;;;21.55;13.23;;;;;;;;;;5070062;28;20111;-63
2021/03/18 07:59:22;;;;;;;22.13;13.43;;;;;;;;;;5075015;28;20024;-62
2021/03/18 08:01:49;;;;;;;27.38;14.77;;;;;;;;;;5076339;28;20074;-66
2021/03/18 08:04:15;;;;;;;23.52;14.25;;;;;;;;;;5071995;28;20020;-74
2021/03/18 08:06:41;;;;;;;19.60;13.07;;;;;;;;;;5073864;28;20029;-68
2021/03/18 08:09:09;;;;;;;22.17;13.82;;;;;;;;;;5092353;28;20036;-71
2021/03/18 08:11:36;;;;;;;19.33;12.73;;;;;;;;;;5094195;28;20111;-71
2021/03/18 08:14:06;;;;;;;23.20;14.07;;;;;;;;;;5093468;28;20137;-71
2021/03/18 08:16:32;;;;;;;25.15;14.73;;;;;;;;;;5093850;28;20024;-70
2021/03/18 08:18:59;;;;;;;26.17;17.02;;;;;;;;;;5093753;28;20112;-68
2021/03/18 08:21:35;;;;;;;27.85;15.77;;;;;;;;;;5095069;28;20032;-70
2021/03/18 08:24:02;;;;;;;27.27;15.98;;;;;;;;;;5093718;28;20031;-70
2021/03/18 08:26:39;;;;;;;29.38;18.10;;;;;;;;;;5093152;28;20086;-72
2021/03/18 08:29:09;;;;;;;29.08;17.60;;;;;;;;;;5091650;28;20445;-73
2021/03/18 08:31:35;;;;;;;32.58;18.40;;;;;;;;;;5093070;28;20024;-70
2021/03/18 08:34:02;;;;;;;31.77;19.05;;;;;;;;;;5093572;28;20028;-67
2021/03/18 08:36:32;;;;;;;36.08;19.83;;;;;;;;;;5093740;28;20420;-71
2021/03/18 08:38:58;;;;;;;32.08;17.45;;;;;;;;;;5092474;28;20079;-69
2021/03/18 08:41:29;;;;;;;29.73;17.77;;;;;;;;;;5093306;28;20433;-71
2021/03/18 08:44:14;;;;;;;29.98;17.80;;;;;;;;;;5092457;28;20020;-72
2021/03/18 08:46:42;;;;;;;29.73;18.40;;;;;;;;;;5092724;28;20390;-72
2021/03/18 08:49:18;;;;;;;33.27;19.90;;;;;;;;;;5092520;28;20031;-71
2021/03/18 08:51:47;;;;;;;32.35;18.38;;;;;;;;;;5092447;28;20256;-71
2021/03/18 08:54:33;;;;;;;33.83;17.88;;;;;;;;;;5092299;28;20086;-69
2021/03/18 08:56:59;;;;;;;29.73;17.25;;;;;;;;;;5092560;28;20081;-72
2021/03/18 08:59:25;;;;;;;27.88;16.27;;;;;;;;;;5091871;28;20389;-72
2021/03/18 09:02:02;;;;;;;29.42;16.83;;;;;;;;;;5082011;28;20586;-68
2021/03/18 09:04:54;;;;;;;29.45;16.73;;;;;;;;;;5073886;28;20056;-67
2021/03/18 09:07:21;;;;;;;25.65;15.68;;;;;;;;;;5052630;28;20422;-70
2021/03/18 09:09:58;;;;;;;28.98;17.30;;;;;;;;;;5071635;28;20052;-69
2021/03/18 09:12:24;;;;;;;30.02;17.33;;;;;;;;;;5074557;28;20132;-71
2021/03/18 09:14:50;;;;;;;30.05;17.27;;;;;;;;;;5078004;28;20369;-70
2021/03/18 09:17:16;;;;;;;31.27;17.23;;;;;;;;;;5071782;28;20031;-74
2021/03/18 09:19:47;;;;;;;28.23;17.58;;;;;;;;;;5074657;28;20032;-69
2021/03/18 09:22:14;;;;;;;29.17;18.08;;;;;;;;;;5081286;28;20032;-71
2021/03/18 09:24:41;;;;;;;31.67;19.00;;;;;;;;;;5073820;28;20040;-68
2021/03/18 09:27:11;;;;;;;28.13;15.65;;;;;;;;;;5092672;28;20063;-71
2021/03/18 09:29:38;;;;;;;28.17;16.50;;;;;;;;;;5092309;28;20549;-73
2021/03/18 09:32:05;;;;;;;24.90;15.00;;;;;;;;;;5091716;28;20047;-73
2021/03/18 09:34:39;;;;;;;25.40;16.63;;;;;;;;;;5095155;28;20028;-71
2021/03/18 09:37:06;;;;;;;26.90;16.20;;;;;;;;;;5093231;28;20024;-71
2021/03/18 09:39:32;;;;;;;25.48;15.85;;;;;;;;;;5063666;28;20051;-68
2021/03/18 09:42:01;;;;;;;23.85;15.63;;;;;;;;;;5075188;28;20473;-73
2021/03/18 09:44:28;;;;;;;25.00;16.60;;;;;;;;;;5081650;28;20531;-71
2021/03/18 09:46:55;;;;;;;25.90;14.95;;;;;;;;;;5091841;28;20036;-71
2021/03/18 09:49:40;;;;;;;27.27;17.02;;;;;;;;;;5092233;28;20099;-72
2021/03/18 09:52:08;;;;;;;26.20;16.42;;;;;;;;;;5092599;28;20026;-72
2021/03/18 09:54:35;;;;;;;26.00;15.55;;;;;;;;;;5093800;28;20028;-70
2021/03/18 09:57:02;;;;;;;24.55;15.88;;;;;;;;;;5096438;28;20099;-72
2021/03/18 09:59:29;;;;;;;27.65;17.88;;;;;;;;;;5095790;28;20107;-69
2021/03/18 10:01:55;;;;;;;30.20;17.88;;;;;;;;;;5078492;28;20027;-72
2021/03/18 10:04:22;;;;;;;25.25;15.95;;;;;;;;;;5095486;28;20466;-70
2021/03/18 10:06:56;;;;;;;27.42;15.77;;;;;;;;;;5096100;28;20043;-70
2021/03/18 10:09:26;;;;;;;22.60;14.55;;;;;;;;;;5095819;28;20060;-70
2021/03/18 10:11:56;;;;;;;24.30;15.02;;;;;;;;;;5096539;28;20174;-73
2021/03/18 10:14:27;;;;;;;25.13;15.32;;;;;;;;;;5095608;28;20020;-71
2021/03/18 10:16:54;;;;;;;23.83;14.70;;;;;;;;;;5095730;28;20497;-68
2021/03/18 10:19:23;;;;;;;26.08;14.82;;;;;;;;;;5095723;28;20105;-71
2021/03/18 10:21:50;;;;;;;21.98;13.45;;;;;;;;;;5093019;28;20477;-72
2021/03/18 10:24:16;;;;;;;20.20;14.48;;;;;;;;;;5086774;28;20032;-71
2021/03/18 10:26:43;;;;;;;23.20;14.82;;;;;;;;;;5086476;28;20044;-73
2021/03/18 10:29:10;;;;;;;22.70;14.63;;;;;;;;;;5094359;28;20107;-72
2021/03/18 10:31:37;;;;;;;20.88;13.65;;;;;;;;;;5088455;28;20025;-73
2021/03/18 10:34:05;;;;;;;20.75;14.20;;;;;;;;;;5084091;28;20487;-70
2021/03/18 10:36:41;;;;;;;16.85;11.77;;;;;;;;;;5093299;28;20020;-67
2021/03/18 10:39:10;;;;;;;19.45;12.43;;;;;;;;;;5088767;28;20027;-69
2021/03/18 10:41:52;;;;;;;20.15;12.38;;;;;;;;;;5095359;28;20035;-74
2021/03/18 10:44:19;;;;;;;13.90;10.90;;;;;;;;;;5063884;28;20112;-73
2021/03/18 10:46:45;;;;;;;18.52;13.07;;;;;;;;;;5090826;28;20067;-73
2021/03/18 10:49:12;;;;;;;14.88;11.18;;;;;;;;;;5096060;28;20020;-71
2021/03/18 10:51:43;;;;;;;15.60;10.55;;;;;;;;;;5097449;28;20078;-75
2021/03/18 10:54:09;;;;;;;16.13;11.38;;;;;;;;;;5091302;28;20031;-75
2021/03/18 10:56:35;;;;;;;15.10;10.75;;;;;;;;;;5095873;28;20028;-68
2021/03/18 10:59:17;;;;;;;16.55;11.02;;;;;;;;;;5078343;28;20092;-75
2021/03/18 11:01:43;;;;;;;17.42;10.68;;;;;;;;;;5096703;28;20017;-71
2021/03/18 11:04:10;;;;;;;14.48;10.13;;;;;;;;;;5079917;28;20023;-72
2021/03/18 11:06:50;;;;;;;14.80;10.25;;;;;;;;;;5099209;28;20594;-75
2021/03/18 11:09:17;;;;;;;16.77;11.20;;;;;;;;;;5086847;28;20049;-66
2021/03/18 11:12:03;;;;;;;13.38;10.75;;;;;;;;;;5064605;28;20046;-72
2021/03/18 11:14:31;;;;;;;13.52;10.43;;;;;;;;;;5071244;28;20025;-71
2021/03/18 11:17:04;;;;;;;15.57;11.48;;;;;;;;;;5055885;28;20532;-72
2021/03/18 11:19:30;;;;;;;13.70;10.50;;;;;;;;;;5074272;28;20379;-71
2021/03/18 11:22:01;;;;;;;13.85;9.68;;;;;;;;;;5073843;28;20070;-72
2021/03/18 11:24:28;;;;;;;14.43;10.65;;;;;;;;;;5073917;28;20157;-71
2021/03/18 11:26:54;;;;;;;15.02;10.68;;;;;;;;;;5073762;28;20048;-71
2021/03/18 11:29:21;;;;;;;14.50;9.95;;;;;;;;;;5071314;28;20206;-71
2021/03/18 11:31:51;;;;;;;15.57;9.95;;;;;;;;;;5068059;28;20041;-72
2021/03/18 11:34:18;;;;;;;13.82;10.13;;;;;;;;;;5069189;28;20192;-73
2021/03/18 11:36:47;;;;;;;13.32;10.07;;;;;;;;;;5073706;28;20024;-71
2021/03/18 11:39:13;;;;;;;15.38;9.88;;;;;;;;;;5074217;28;20020;-70
2021/03/18 11:41:39;;;;;;;14.43;8.90;;;;;;;;;;5071554;28;20037;-72
2021/03/18 11:44:05;;;;;;;13.85;9.77;;;;;;;;;;5071567;28;20023;-72
2021/03/18 11:46:32;;;;;;;16.00;9.77;;;;;;;;;;5071234;28;20044;-71
2021/03/18 11:48:58;;;;;;;12.63;8.60;;;;;;;;;;5072356;28;20025;-71
2021/03/18 11:51:24;;;;;;;11.55;9.30;;;;;;;;;;5073249;28;20083;-73
2021/03/18 11:53:50;;;;;;;13.57;9.63;;;;;;;;;;5073222;28;20024;-71
2021/03/18 11:56:17;;;;;;;11.30;8.65;;;;;;;;;;5055620;28;20034;-72
2021/03/18 11:58:43;;;;;;;12.93;9.90;;;;;;;;;;5072082;28;20024;-73
2021/03/18 12:01:09;;;;;;;11.45;9.07;;;;;;;;;;5069830;28;20071;-72
2021/03/18 12:03:35;;;;;;;12.13;9.40;;;;;;;;;;5072600;28;20028;-72
2021/03/18 12:06:02;;;;;;;12.20;9.63;;;;;;;;;;5072408;28;20036;-72
2021/03/18 12:08:28;;;;;;;12.10;9.25;;;;;;;;;;5070258;28;20414;-73
2021/03/18 12:10:55;;;;;;;15.52;10.98;;;;;;;;;;5092449;28;20051;-71
2021/03/18 12:13:22;;;;;;;12.18;9.23;;;;;;;;;;5082426;28;20027;-72
2021/03/18 12:15:48;;;;;;;10.07;8.13;;;;;;;;;;5082138;28;20032;-71
2021/03/18 12:18:14;;;;;;;15.63;10.10;;;;;;;;;;5061775;28;20047;-71
2021/03/18 12:20:40;;;;;;;11.75;9.00;;;;;;;;;;5096183;28;20024;-70
2021/03/18 12:23:06;;;;;;;13.40;10.13;;;;;;;;;;5094432;28;20480;-71
2021/03/18 12:25:32;;;;;;;14.98;10.15;;;;;;;;;;5081993;28;20553;-71
2021/03/18 12:27:58;;;;;;;13.85;10.77;;;;;;;;;;5093121;28;20059;-71
2021/03/18 12:30:24;;;;;;;16.00;11.35;;;;;;;;;;5081602;28;20060;-71
2021/03/18 12:32:51;;;;;;;14.82;10.52;;;;;;;;;;5076764;28;20024;-67
2021/03/18 12:35:19;;;;;;;14.93;10.77;;;;;;;;;;5076998;28;20031;-70
2021/03/18 12:37:46;;;;;;;14.43;10.82;;;;;;;;;;5072163;28;20461;-68
2021/03/18 12:40:13;;;;;;;15.70;10.98;;;;;;;;;;5080730;28;20021;-68
2021/03/18 12:42:39;;;;;;;14.48;10.25;;;;;;;;;;5077594;28;20033;-69
2021/03/18 12:45:06;;;;;;;14.50;10.25;;;;;;;;;;5087953;28;20028;-67
2021/03/18 12:47:32;;;;;;;14.90;10.40;;;;;;;;;;5084696;28;20024;-61
2021/03/18 12:49:58;;;;;;;16.25;11.48;;;;;;;;;;5091230;28;20024;-63
2021/03/18 12:52:27;;;;;;;16.10;10.82;;;;;;;;;;5062219;28;20016;-60
2021/03/18 12:54:55;;;;;;;15.55;9.98;;;;;;;;;;5091400;28;20031;-65
2021/03/18 12:57:21;;;;;;;15.13;10.32;;;;;;;;;;5086326;28;20051;-61
2021/03/18 12:59:47;;;;;;;24.17;18.55;;;;;;;;;;5084947;28;20514;-58
2021/03/18 13:02:13;;;;;;;22.15;15.98;;;;;;;;;;5086846;28;20039;-59
2021/03/18 13:04:40;;;;;;;105.85;40.90;;;;;;;;;;5087141;28;20082;-60
2021/03/18 13:07:20;;;;;;;29.98;22.20;;;;;;;;;;5091914;28;20074;-64
2021/03/18 13:09:52;;;;;;;179.30;108.28;;;;;;;;;;5072921;28;20048;-63
2021/03/18 13:12:21;;;;;;;22.25;15.30;;;;;;;;;;5090436;28;20548;-61
2021/03/18 13:14:49;;;;;;;16.00;10.30;;;;;;;;;;5086358;28;20062;-63
2021/03/18 13:17:15;;;;;;;15.60;10.55;;;;;;;;;;5081878;28;20020;-60
2021/03/18 13:19:42;;;;;;;14.73;10.63;;;;;;;;;;5089446;28;20028;-73
2021/03/18 13:22:09;;;;;;;16.65;11.52;;;;;;;;;;5094369;28;20460;-64
2021/03/18 13:24:35;;;;;;;19.10;12.88;;;;;;;;;;5082378;28;20119;-64
2021/03/18 13:27:01;;;;;;;20.27;14.45;;;;;;;;;;5092496;28;20036;-61
2021/03/18 13:29:27;;;;;;;24.52;14.82;;;;;;;;;;5091113;28;20463;-70
2021/03/18 13:31:54;;;;;;;20.15;12.95;;;;;;;;;;5099220;28;20036;-62
2021/03/18 13:34:20;;;;;;;14.43;10.40;;;;;;;;;;5099370;28;20074;-58
2021/03/18 13:36:46;;;;;;;14.98;10.55;;;;;;;;;;5094668;28;20429;-61
2021/03/18 13:39:12;;;;;;;20.73;14.25;;;;;;;;;;5095788;28;20107;-62
2021/03/18 13:41:38;;;;;;;14.85;11.07;;;;;;;;;;5094746;28;20032;-61
2021/03/18 13:44:05;;;;;;;13.68;9.25;;;;;;;;;;5095486;28;20043;-59
2021/03/18 13:46:31;;;;;;;14.48;10.02;;;;;;;;;;5095987;28;20118;-62
2021/03/18 13:48:57;;;;;;;15.27;11.63;;;;;;;;;;5095816;28;20022;-59
2021/03/18 13:51:23;;;;;;;13.35;9.45;;;;;;;;;;5094604;28;20090;-61
2021/03/18 13:53:50;;;;;;;12.82;10.32;;;;;;;;;;5094460;28;20025;-60
2021/03/18 13:56:16;;;;;;;12.63;9.50;;;;;;;;;;5096048;28;20051;-61
2021/03/18 13:58:45;;;;;;;14.88;10.75;;;;;;;;;;5095824;28;20390;-63
2021/03/18 14:01:11;;;;;;;;;;;;;;;;;;5096547;28;20062;-60
2021/03/18 14:03:38;;;;;;;14.38;9.85;;;;;;;;;;5096317;28;19954;-66
2021/03/18 14:06:04;;;;;;;12.82;9.00;;;;;;;;;;5092865;28;20030;-61
2021/03/18 14:08:35;;;;;;;12.73;8.45;;;;;;;;;;5088535;28;20389;-63
2021/03/18 14:11:03;;;;;;;12.48;8.65;;;;;;;;;;5075334;28;20059;-64
2021/03/18 14:13:29;;;;;;;19.42;13.20;;;;;;;;;;5094509;28;20397;-61
2021/03/18 14:15:56;;;;;;;13.70;10.00;;;;;;;;;;5092966;28;20058;-66
2021/03/18 14:18:22;;;;;;;14.48;10.35;;;;;;;;;;5087665;28;20036;-62